sensor_id;sensor_type;location;lat;lon;timestamp;P1;durP1;ratioP1;P2;durP2;ratioP2
29246;SDS011;16272;48.188;9.964;2022-12-07T00:01:08;14.35;;;5.75;;
29246;SDS011;16272;48.188;9.964;2022-12-07T00:03:35;15.93;;;5.80;;
29246;SDS011;16272;48.188;9.964;2022-12-07T00:06:01;14.52;;;5.65;;
29246;SDS011;16272;48.188;9.964;2022-12-07T00:08:28;14.60;;;5.30;;
29246;SDS011;16272;48.188;9.964;2022-12-07T00:10:53;13.33;;;4.90;;
29246;SDS011;16272;48.188;9.964;2022-12-07T00:13:18;15.43;;;5.70;;
29246;SDS011;16272;48.188;9.964;2022-12-07T00:15:44;16.13;;;6.03;;
29246;SDS011;16272;48.188;9.964;2022-12-07T00:18:09;14.87;;;5.10;;
29246;SDS011;16272;48.188;9.964;2022-12-07T00:20:35;12.57;;;4.77;;
29246;SDS011;16272;48.188;9.964;2022-12-07T00:23:00;14.57;;;5.40;;
29246;SDS011;16272;48.188;9.964;2022-12-07T00:25:25;14.43;;;5.27;;
29246;SDS011;16272;48.188;9.964;2022-12-07T00:27:54;12.85;;;5.20;;
29246;SDS011;16272;48.188;9.964;2022-12-07T00:30:22;14.57;;;5.30;;
29246;SDS011;16272;48.188;9.964;2022-12-07T00:32:48;15.30;;;5.30;;
29246;SDS011;16272;48.188;9.964;2022-12-07T00:35:14;13.85;;;4.93;;
29246;SDS011;16272;48.188;9.964;2022-12-07T00:37:39;13.67;;;5.10;;
29246;SDS011;16272;48.188;9.964;2022-12-07T00:40:05;13.80;;;5.30;;
29246;SDS011;16272;48.188;9.964;2022-12-07T00:42:31;13.63;;;5.05;;
29246;SDS011;16272;48.188;9.964;2022-12-07T00:44:56;14.27;;;5.00;;
29246;SDS011;16272;48.188;9.964;2022-12-07T00:47:22;14.17;;;5.10;;
29246;SDS011;16272;48.188;9.964;2022-12-07T00:49:47;14.20;;;4.80;;
29246;SDS011;16272;48.188;9.964;2022-12-07T00:52:12;12.63;;;4.67;;
29246;SDS011;16272;48.188;9.964;2022-12-07T00:54:37;15.93;;;5.10;;
29246;SDS011;16272;48.188;9.964;2022-12-07T00:57:04;13.87;;;4.93;;
29246;SDS011;16272;48.188;9.964;2022-12-07T00:59:29;13.90;;;5.03;;
29246;SDS011;16272;48.188;9.964;2022-12-07T01:01:54;13.13;;;5.00;;
29246;SDS011;16272;48.188;9.964;2022-12-07T01:04:20;13.67;;;4.53;;
29246;SDS011;16272;48.188;9.964;2022-12-07T01:06:45;13.20;;;5.23;;
29246;SDS011;16272;48.188;9.964;2022-12-07T01:09:10;13.87;;;5.00;;
29246;SDS011;16272;48.188;9.964;2022-12-07T01:11:36;13.00;;;4.87;;
29246;SDS011;16272;48.188;9.964;2022-12-07T01:14:01;13.13;;;5.00;;
29246;SDS011;16272;48.188;9.964;2022-12-07T01:16:28;12.10;;;4.75;;
29246;SDS011;16272;48.188;9.964;2022-12-07T01:18:55;13.75;;;5.10;;
29246;SDS011;16272;48.188;9.964;2022-12-07T01:21:26;13.03;;;4.53;;
29246;SDS011;16272;48.188;9.964;2022-12-07T01:23:57;13.15;;;4.28;;
29246;SDS011;16272;48.188;9.964;2022-12-07T01:26:23;13.10;;;4.88;;
29246;SDS011;16272;48.188;9.964;2022-12-07T01:28:50;13.35;;;5.00;;
29246;SDS011;16272;48.188;9.964;2022-12-07T01:31:17;13.00;;;4.88;;
29246;SDS011;16272;48.188;9.964;2022-12-07T01:33:45;14.33;;;4.63;;
29246;SDS011;16272;48.188;9.964;2022-12-07T01:38:49;14.35;;;5.30;;
29246;SDS011;16272;48.188;9.964;2022-12-07T01:41:17;14.05;;;4.68;;
29246;SDS011;16272;48.188;9.964;2022-12-07T01:46:33;13.73;;;5.10;;
29246;SDS011;16272;48.188;9.964;2022-12-07T01:48:59;12.97;;;4.70;;
29246;SDS011;16272;48.188;9.964;2022-12-07T01:51:25;14.27;;;5.27;;
29246;SDS011;16272;48.188;9.964;2022-12-07T01:53:51;13.60;;;4.75;;
29246;SDS011;16272;48.188;9.964;2022-12-07T01:56:18;14.00;;;4.60;;
29246;SDS011;16272;48.188;9.964;2022-12-07T01:58:49;13.63;;;5.05;;
29246;SDS011;16272;48.188;9.964;2022-12-07T02:01:16;13.57;;;4.75;;
29246;SDS011;16272;48.188;9.964;2022-12-07T02:03:43;14.97;;;4.70;;
29246;SDS011;16272;48.188;9.964;2022-12-07T02:06:10;12.23;;;4.57;;
29246;SDS011;16272;48.188;9.964;2022-12-07T02:08:43;12.13;;;4.07;;
29246;SDS011;16272;48.188;9.964;2022-12-07T02:11:09;15.82;;;4.68;;
29246;SDS011;16272;48.188;9.964;2022-12-07T02:13:36;13.18;;;5.15;;
29246;SDS011;16272;48.188;9.964;2022-12-07T02:16:09;11.63;;;4.57;;
29246;SDS011;16272;48.188;9.964;2022-12-07T02:21:44;13.68;;;5.07;;
29246;SDS011;16272;48.188;9.964;2022-12-07T02:30:14;14.17;;;4.70;;
29246;SDS011;16272;48.188;9.964;2022-12-07T02:43:16;12.77;;;4.27;;
29246;SDS011;16272;48.188;9.964;2022-12-07T02:45:46;12.50;;;4.43;;
29246;SDS011;16272;48.188;9.964;2022-12-07T02:48:14;14.30;;;5.25;;
29246;SDS011;16272;48.188;9.964;2022-12-07T02:50:47;13.98;;;4.68;;
29246;SDS011;16272;48.188;9.964;2022-12-07T02:56:03;13.07;;;4.33;;
29246;SDS011;16272;48.188;9.964;2022-12-07T02:58:38;13.13;;;5.15;;
29246;SDS011;16272;48.188;9.964;2022-12-07T03:07:17;13.63;;;4.50;;
29246;SDS011;16272;48.188;9.964;2022-12-07T03:10:00;14.13;;;5.10;;
29246;SDS011;16272;48.188;9.964;2022-12-07T03:15:05;15.75;;;5.20;;
29246;SDS011;16272;48.188;9.964;2022-12-07T03:17:39;13.88;;;4.75;;
29246;SDS011;16272;48.188;9.964;2022-12-07T03:20:07;13.90;;;4.95;;
29246;SDS011;16272;48.188;9.964;2022-12-07T03:22:37;13.83;;;4.83;;
29246;SDS011;16272;48.188;9.964;2022-12-07T03:25:07;16.40;;;5.60;;
29246;SDS011;16272;48.188;9.964;2022-12-07T03:30:10;13.30;;;4.70;;
29246;SDS011;16272;48.188;9.964;2022-12-07T03:32:43;14.18;;;5.28;;
29246;SDS011;16272;48.188;9.964;2022-12-07T03:35:18;13.00;;;5.10;;
29246;SDS011;16272;48.188;9.964;2022-12-07T03:42:50;16.27;;;5.68;;
29246;SDS011;16272;48.188;9.964;2022-12-07T03:45:17;15.07;;;5.28;;
29246;SDS011;16272;48.188;9.964;2022-12-07T03:47:46;14.53;;;5.23;;
29246;SDS011;16272;48.188;9.964;2022-12-07T03:50:25;14.75;;;4.60;;
29246;SDS011;16272;48.188;9.964;2022-12-07T03:55:54;16.58;;;5.55;;
29246;SDS011;16272;48.188;9.964;2022-12-07T03:58:23;16.08;;;5.60;;
29246;SDS011;16272;48.188;9.964;2022-12-07T04:00:50;16.03;;;5.23;;
29246;SDS011;16272;48.188;9.964;2022-12-07T04:03:16;17.05;;;5.50;;
29246;SDS011;16272;48.188;9.964;2022-12-07T04:05:42;14.98;;;5.35;;
29246;SDS011;16272;48.188;9.964;2022-12-07T04:08:08;14.77;;;5.30;;
29246;SDS011;16272;48.188;9.964;2022-12-07T04:10:34;17.88;;;5.93;;
29246;SDS011;16272;48.188;9.964;2022-12-07T04:12:59;16.20;;;5.67;;
29246;SDS011;16272;48.188;9.964;2022-12-07T04:15:24;15.07;;;5.67;;
29246;SDS011;16272;48.188;9.964;2022-12-07T04:17:50;15.07;;;5.50;;
29246;SDS011;16272;48.188;9.964;2022-12-07T04:20:15;15.27;;;5.75;;
29246;SDS011;16272;48.188;9.964;2022-12-07T04:22:41;14.73;;;5.30;;
29246;SDS011;16272;48.188;9.964;2022-12-07T04:25:06;16.20;;;5.57;;
29246;SDS011;16272;48.188;9.964;2022-12-07T04:27:32;15.93;;;5.23;;
29246;SDS011;16272;48.188;9.964;2022-12-07T04:29:57;17.40;;;5.65;;
29246;SDS011;16272;48.188;9.964;2022-12-07T04:32:23;17.02;;;5.50;;
29246;SDS011;16272;48.188;9.964;2022-12-07T04:34:48;17.50;;;5.60;;
29246;SDS011;16272;48.188;9.964;2022-12-07T04:37:14;15.63;;;5.30;;
29246;SDS011;16272;48.188;9.964;2022-12-07T04:39:39;14.43;;;5.37;;
29246;SDS011;16272;48.188;9.964;2022-12-07T04:42:05;15.10;;;5.50;;
29246;SDS011;16272;48.188;9.964;2022-12-07T04:44:30;15.20;;;4.97;;
29246;SDS011;16272;48.188;9.964;2022-12-07T04:46:56;14.43;;;5.20;;
29246;SDS011;16272;48.188;9.964;2022-12-07T04:49:22;13.97;;;4.60;;
29246;SDS011;16272;48.188;9.964;2022-12-07T04:51:48;15.85;;;5.18;;
29246;SDS011;16272;48.188;9.964;2022-12-07T04:54:15;11.90;;;4.45;;
29246;SDS011;16272;48.188;9.964;2022-12-07T04:56:41;16.05;;;5.07;;
29246;SDS011;16272;48.188;9.964;2022-12-07T04:59:09;15.70;;;5.20;;
29246;SDS011;16272;48.188;9.964;2022-12-07T05:01:35;14.63;;;5.07;;
29246;SDS011;16272;48.188;9.964;2022-12-07T05:04:02;14.60;;;5.13;;
29246;SDS011;16272;48.188;9.964;2022-12-07T05:06:27;14.95;;;5.20;;
29246;SDS011;16272;48.188;9.964;2022-12-07T05:08:53;13.47;;;4.97;;
29246;SDS011;16272;48.188;9.964;2022-12-07T05:11:18;14.23;;;5.43;;
29246;SDS011;16272;48.188;9.964;2022-12-07T05:14:03;16.20;;;4.47;;
29246;SDS011;16272;48.188;9.964;2022-12-07T05:16:34;14.80;;;5.28;;
29246;SDS011;16272;48.188;9.964;2022-12-07T05:18:59;14.27;;;5.20;;
29246;SDS011;16272;48.188;9.964;2022-12-07T05:21:25;14.80;;;5.17;;
29246;SDS011;16272;48.188;9.964;2022-12-07T05:23:50;14.00;;;4.63;;
29246;SDS011;16272;48.188;9.964;2022-12-07T05:26:16;15.75;;;5.35;;
29246;SDS011;16272;48.188;9.964;2022-12-07T05:28:41;14.33;;;4.63;;
29246;SDS011;16272;48.188;9.964;2022-12-07T05:31:07;15.87;;;4.73;;
29246;SDS011;16272;48.188;9.964;2022-12-07T05:33:33;14.57;;;5.10;;
29246;SDS011;16272;48.188;9.964;2022-12-07T05:35:59;13.60;;;4.27;;
29246;SDS011;16272;48.188;9.964;2022-12-07T05:38:30;15.18;;;4.80;;
29246;SDS011;16272;48.188;9.964;2022-12-07T05:40:59;15.95;;;5.13;;
29246;SDS011;16272;48.188;9.964;2022-12-07T05:43:26;14.15;;;4.97;;
29246;SDS011;16272;48.188;9.964;2022-12-07T05:45:51;15.67;;;4.70;;
29246;SDS011;16272;48.188;9.964;2022-12-07T05:48:17;14.03;;;4.87;;
29246;SDS011;16272;48.188;9.964;2022-12-07T05:50:42;14.90;;;5.30;;
29246;SDS011;16272;48.188;9.964;2022-12-07T05:53:07;14.40;;;5.07;;
29246;SDS011;16272;48.188;9.964;2022-12-07T05:55:32;15.20;;;4.80;;
29246;SDS011;16272;48.188;9.964;2022-12-07T05:57:58;13.07;;;4.30;;
29246;SDS011;16272;48.188;9.964;2022-12-07T06:00:42;13.90;;;4.50;;
29246;SDS011;16272;48.188;9.964;2022-12-07T06:03:07;18.40;;;5.00;;
29246;SDS011;16272;48.188;9.964;2022-12-07T06:05:33;16.30;;;4.90;;
29246;SDS011;16272;48.188;9.964;2022-12-07T06:07:58;18.67;;;5.40;;
29246;SDS011;16272;48.188;9.964;2022-12-07T06:10:24;16.37;;;5.63;;
29246;SDS011;16272;48.188;9.964;2022-12-07T06:12:49;15.03;;;5.20;;
29246;SDS011;16272;48.188;9.964;2022-12-07T06:15:14;14.60;;;4.90;;
29246;SDS011;16272;48.188;9.964;2022-12-07T06:17:40;14.80;;;4.40;;
29246;SDS011;16272;48.188;9.964;2022-12-07T06:20:05;15.17;;;4.97;;
29246;SDS011;16272;48.188;9.964;2022-12-07T06:22:31;15.90;;;5.07;;
29246;SDS011;16272;48.188;9.964;2022-12-07T06:24:57;17.73;;;5.27;;
29246;SDS011;16272;48.188;9.964;2022-12-07T06:27:22;15.90;;;5.03;;
29246;SDS011;16272;48.188;9.964;2022-12-07T06:29:47;15.60;;;5.37;;
29246;SDS011;16272;48.188;9.964;2022-12-07T06:32:12;16.43;;;4.90;;
29246;SDS011;16272;48.188;9.964;2022-12-07T06:34:38;13.73;;;5.27;;
29246;SDS011;16272;48.188;9.964;2022-12-07T06:37:03;14.60;;;5.45;;
29246;SDS011;16272;48.188;9.964;2022-12-07T06:39:29;15.63;;;5.77;;
29246;SDS011;16272;48.188;9.964;2022-12-07T06:41:55;15.00;;;5.00;;
29246;SDS011;16272;48.188;9.964;2022-12-07T06:44:21;17.88;;;5.20;;
29246;SDS011;16272;48.188;9.964;2022-12-07T06:46:48;14.85;;;5.15;;
29246;SDS011;16272;48.188;9.964;2022-12-07T06:49:14;15.63;;;5.05;;
29246;SDS011;16272;48.188;9.964;2022-12-07T06:51:39;16.23;;;4.80;;
29246;SDS011;16272;48.188;9.964;2022-12-07T06:54:08;15.73;;;5.15;;
29246;SDS011;16272;48.188;9.964;2022-12-07T06:56:35;15.32;;;4.60;;
29246;SDS011;16272;48.188;9.964;2022-12-07T06:59:00;15.53;;;5.10;;
29246;SDS011;16272;48.188;9.964;2022-12-07T07:01:26;13.30;;;4.67;;
29246;SDS011;16272;48.188;9.964;2022-12-07T07:03:51;16.83;;;4.78;;
29246;SDS011;16272;48.188;9.964;2022-12-07T07:06:17;14.90;;;5.10;;
29246;SDS011;16272;48.188;9.964;2022-12-07T07:08:42;13.98;;;4.70;;
29246;SDS011;16272;48.188;9.964;2022-12-07T07:11:08;14.63;;;4.90;;
29246;SDS011;16272;48.188;9.964;2022-12-07T07:13:34;14.70;;;4.90;;
29246;SDS011;16272;48.188;9.964;2022-12-07T07:16:00;15.38;;;4.63;;
29246;SDS011;16272;48.188;9.964;2022-12-07T07:18:26;15.57;;;4.57;;
29246;SDS011;16272;48.188;9.964;2022-12-07T07:20:51;12.32;;;4.30;;
29246;SDS011;16272;48.188;9.964;2022-12-07T07:23:18;13.75;;;4.30;;
29246;SDS011;16272;48.188;9.964;2022-12-07T07:25:44;13.95;;;4.93;;
29246;SDS011;16272;48.188;9.964;2022-12-07T07:28:10;14.17;;;4.20;;
29246;SDS011;16272;48.188;9.964;2022-12-07T07:30:35;13.95;;;4.30;;
29246;SDS011;16272;48.188;9.964;2022-12-07T07:33:01;12.33;;;4.27;;
29246;SDS011;16272;48.188;9.964;2022-12-07T07:35:28;14.60;;;4.65;;
29246;SDS011;16272;48.188;9.964;2022-12-07T07:37:55;13.80;;;4.93;;
29246;SDS011;16272;48.188;9.964;2022-12-07T07:40:21;12.98;;;4.38;;
29246;SDS011;16272;48.188;9.964;2022-12-07T07:42:50;14.27;;;4.23;;
29246;SDS011;16272;48.188;9.964;2022-12-07T07:45:16;13.48;;;4.30;;
29246;SDS011;16272;48.188;9.964;2022-12-07T07:47:42;14.95;;;4.65;;
29246;SDS011;16272;48.188;9.964;2022-12-07T07:50:08;13.27;;;4.87;;
29246;SDS011;16272;48.188;9.964;2022-12-07T07:52:33;15.93;;;5.17;;
29246;SDS011;16272;48.188;9.964;2022-12-07T07:54:59;15.05;;;4.80;;
29246;SDS011;16272;48.188;9.964;2022-12-07T07:57:24;16.17;;;5.30;;
29246;SDS011;16272;48.188;9.964;2022-12-07T07:59:49;15.73;;;5.33;;
29246;SDS011;16272;48.188;9.964;2022-12-07T08:02:16;15.27;;;4.90;;
29246;SDS011;16272;48.188;9.964;2022-12-07T08:04:43;16.58;;;5.50;;
29246;SDS011;16272;48.188;9.964;2022-12-07T08:07:09;13.10;;;4.93;;
29246;SDS011;16272;48.188;9.964;2022-12-07T08:09:34;14.43;;;4.88;;
29246;SDS011;16272;48.188;9.964;2022-12-07T08:12:00;18.33;;;5.43;;
29246;SDS011;16272;48.188;9.964;2022-12-07T08:14:25;14.20;;;4.87;;
29246;SDS011;16272;48.188;9.964;2022-12-07T08:16:52;15.20;;;5.15;;
29246;SDS011;16272;48.188;9.964;2022-12-07T08:19:18;15.95;;;5.07;;
29246;SDS011;16272;48.188;9.964;2022-12-07T08:21:43;15.73;;;5.23;;
29246;SDS011;16272;48.188;9.964;2022-12-07T08:24:08;18.13;;;5.73;;
29246;SDS011;16272;48.188;9.964;2022-12-07T08:26:33;15.93;;;4.53;;
29246;SDS011;16272;48.188;9.964;2022-12-07T08:28:59;19.30;;;6.30;;
29246;SDS011;16272;48.188;9.964;2022-12-07T08:31:24;16.27;;;5.70;;
29246;SDS011;16272;48.188;9.964;2022-12-07T08:33:49;20.63;;;5.30;;
29246;SDS011;16272;48.188;9.964;2022-12-07T08:36:15;16.57;;;5.57;;
29246;SDS011;16272;48.188;9.964;2022-12-07T08:38:41;16.23;;;4.90;;
29246;SDS011;16272;48.188;9.964;2022-12-07T08:41:07;14.20;;;5.20;;
29246;SDS011;16272;48.188;9.964;2022-12-07T08:43:33;15.32;;;4.95;;
29246;SDS011;16272;48.188;9.964;2022-12-07T08:48:30;16.02;;;5.50;;
29246;SDS011;16272;48.188;9.964;2022-12-07T08:50:57;20.17;;;6.80;;
29246;SDS011;16272;48.188;9.964;2022-12-07T08:53:23;16.90;;;5.82;;
29246;SDS011;16272;48.188;9.964;2022-12-07T08:55:48;18.70;;;5.83;;
29246;SDS011;16272;48.188;9.964;2022-12-07T08:58:14;17.73;;;6.43;;
29246;SDS011;16272;48.188;9.964;2022-12-07T09:00:40;19.27;;;6.87;;
29246;SDS011;16272;48.188;9.964;2022-12-07T09:03:06;19.85;;;7.15;;
29246;SDS011;16272;48.188;9.964;2022-12-07T09:05:32;21.20;;;7.40;;
29246;SDS011;16272;48.188;9.964;2022-12-07T09:08:00;19.98;;;6.88;;
29246;SDS011;16272;48.188;9.964;2022-12-07T09:10:27;21.53;;;7.23;;
29246;SDS011;16272;48.188;9.964;2022-12-07T09:12:54;19.80;;;6.35;;
29246;SDS011;16272;48.188;9.964;2022-12-07T09:15:19;20.10;;;7.13;;
29246;SDS011;16272;48.188;9.964;2022-12-07T09:17:44;18.50;;;6.27;;
29246;SDS011;16272;48.188;9.964;2022-12-07T09:20:10;17.77;;;6.25;;
29246;SDS011;16272;48.188;9.964;2022-12-07T09:22:36;19.60;;;6.57;;
29246;SDS011;16272;48.188;9.964;2022-12-07T09:25:02;18.03;;;6.40;;
29246;SDS011;16272;48.188;9.964;2022-12-07T09:27:28;19.67;;;6.90;;
29246;SDS011;16272;48.188;9.964;2022-12-07T09:29:53;20.10;;;6.97;;
29246;SDS011;16272;48.188;9.964;2022-12-07T09:32:19;18.67;;;6.30;;
29246;SDS011;16272;48.188;9.964;2022-12-07T09:34:45;17.25;;;6.45;;
29246;SDS011;16272;48.188;9.964;2022-12-07T09:37:11;17.05;;;5.78;;
29246;SDS011;16272;48.188;9.964;2022-12-07T09:39:39;17.73;;;5.87;;
29246;SDS011;16272;48.188;9.964;2022-12-07T09:42:05;17.25;;;6.05;;
29246;SDS011;16272;48.188;9.964;2022-12-07T09:44:32;16.00;;;6.30;;
29246;SDS011;16272;48.188;9.964;2022-12-07T09:46:58;14.27;;;5.40;;
29246;SDS011;16272;48.188;9.964;2022-12-07T09:49:24;16.20;;;4.93;;
29246;SDS011;16272;48.188;9.964;2022-12-07T09:52:15;14.17;;;5.07;;
29246;SDS011;16272;48.188;9.964;2022-12-07T09:54:45;15.70;;;5.20;;
29246;SDS011;16272;48.188;9.964;2022-12-07T09:57:13;15.07;;;5.55;;
29246;SDS011;16272;48.188;9.964;2022-12-07T09:59:39;15.18;;;5.47;;
29246;SDS011;16272;48.188;9.964;2022-12-07T10:02:21;13.87;;;5.10;;
29246;SDS011;16272;48.188;9.964;2022-12-07T10:04:50;14.70;;;5.43;;
29246;SDS011;16272;48.188;9.964;2022-12-07T10:07:15;16.58;;;5.72;;
29246;SDS011;16272;48.188;9.964;2022-12-07T10:09:41;14.77;;;5.27;;
29246;SDS011;16272;48.188;9.964;2022-12-07T10:12:08;14.10;;;5.45;;
29246;SDS011;16272;48.188;9.964;2022-12-07T10:14:48;14.00;;;5.03;;
29246;SDS011;16272;48.188;9.964;2022-12-07T10:17:30;16.98;;;5.70;;
29246;SDS011;16272;48.188;9.964;2022-12-07T10:22:36;14.55;;;5.35;;
29246;SDS011;16272;48.188;9.964;2022-12-07T10:25:25;15.03;;;5.43;;
29246;SDS011;16272;48.188;9.964;2022-12-07T10:30:56;13.82;;;5.18;;
29246;SDS011;16272;48.188;9.964;2022-12-07T10:33:28;10.70;;;3.57;;
29246;SDS011;16272;48.188;9.964;2022-12-07T10:38:58;11.75;;;3.40;;
29246;SDS011;16272;48.188;9.964;2022-12-07T10:41:29;9.32;;;3.10;;
29246;SDS011;16272;48.188;9.964;2022-12-07T10:43:56;9.98;;;3.15;;
29246;SDS011;16272;48.188;9.964;2022-12-07T10:54:18;9.18;;;3.10;;
29246;SDS011;16272;48.188;9.964;2022-12-07T10:59:52;9.60;;;3.20;;
29246;SDS011;16272;48.188;9.964;2022-12-07T11:10:21;9.55;;;3.30;;
29246;SDS011;16272;48.188;9.964;2022-12-07T11:18:41;11.35;;;3.55;;
29246;SDS011;16272;48.188;9.964;2022-12-07T11:30:18;10.73;;;3.53;;
29246;SDS011;16272;48.188;9.964;2022-12-07T11:35:30;9.00;;;3.38;;
29246;SDS011;16272;48.188;9.964;2022-12-07T11:38:08;8.45;;;2.78;;
29246;SDS011;16272;48.188;9.964;2022-12-07T11:40:53;8.80;;;2.72;;
29246;SDS011;16272;48.188;9.964;2022-12-07T11:43:37;9.07;;;2.97;;
29246;SDS011;16272;48.188;9.964;2022-12-07T11:46:12;12.60;;;3.45;;
29246;SDS011;16272;48.188;9.964;2022-12-07T11:48:41;9.45;;;3.40;;
29246;SDS011;16272;48.188;9.964;2022-12-07T11:51:10;9.07;;;3.00;;
29246;SDS011;16272;48.188;9.964;2022-12-07T12:03:57;9.45;;;3.50;;
29246;SDS011;16272;48.188;9.964;2022-12-07T12:06:27;9.40;;;3.15;;
29246;SDS011;16272;48.188;9.964;2022-12-07T12:25:48;9.95;;;2.90;;
29246;SDS011;16272;48.188;9.964;2022-12-07T12:28:20;10.50;;;3.43;;
29246;SDS011;16272;48.188;9.964;2022-12-07T12:33:56;8.55;;;2.80;;
29246;SDS011;16272;48.188;9.964;2022-12-07T12:38:52;8.80;;;3.05;;
29246;SDS011;16272;48.188;9.964;2022-12-07T12:50:20;8.77;;;2.90;;
29246;SDS011;16272;48.188;9.964;2022-12-07T13:00:42;8.93;;;3.10;;
29246;SDS011;16272;48.188;9.964;2022-12-07T13:03:16;9.80;;;3.07;;
29246;SDS011;16272;48.188;9.964;2022-12-07T13:05:48;9.85;;;3.22;;
29246;SDS011;16272;48.188;9.964;2022-12-07T13:08:43;8.60;;;2.63;;
29246;SDS011;16272;48.188;9.964;2022-12-07T13:13:49;9.40;;;2.65;;
29246;SDS011;16272;48.188;9.964;2022-12-07T13:18:41;9.47;;;3.07;;
29246;SDS011;16272;48.188;9.964;2022-12-07T13:26:17;9.27;;;3.17;;
29246;SDS011;16272;48.188;9.964;2022-12-07T13:31:50;7.75;;;2.60;;
29246;SDS011;16272;48.188;9.964;2022-12-07T13:34:33;10.63;;;2.50;;
29246;SDS011;16272;48.188;9.964;2022-12-07T13:39:51;9.82;;;3.05;;
29246;SDS011;16272;48.188;9.964;2022-12-07T13:42:25;9.73;;;2.67;;
29246;SDS011;16272;48.188;9.964;2022-12-07T13:44:53;9.02;;;2.70;;
29246;SDS011;16272;48.188;9.964;2022-12-07T13:47:30;9.63;;;3.42;;
29246;SDS011;16272;48.188;9.964;2022-12-07T13:50:01;8.13;;;2.55;;
29246;SDS011;16272;48.188;9.964;2022-12-07T13:57:31;8.35;;;2.53;;
29246;SDS011;16272;48.188;9.964;2022-12-07T14:00:00;8.80;;;2.67;;
29246;SDS011;16272;48.188;9.964;2022-12-07T14:02:29;9.15;;;2.90;;
29246;SDS011;16272;48.188;9.964;2022-12-07T14:05:06;8.32;;;2.83;;
29246;SDS011;16272;48.188;9.964;2022-12-07T14:07:34;8.43;;;2.72;;
29246;SDS011;16272;48.188;9.964;2022-12-07T14:10:04;9.63;;;2.38;;
29246;SDS011;16272;48.188;9.964;2022-12-07T14:12:31;8.70;;;2.90;;
29246;SDS011;16272;48.188;9.964;2022-12-07T14:14:58;10.60;;;3.28;;
29246;SDS011;16272;48.188;9.964;2022-12-07T14:17:26;7.75;;;2.63;;
29246;SDS011;16272;48.188;9.964;2022-12-07T14:19:53;9.53;;;3.07;;
29246;SDS011;16272;48.188;9.964;2022-12-07T14:24:48;8.55;;;2.80;;
29246;SDS011;16272;48.188;9.964;2022-12-07T14:27:17;10.13;;;3.57;;
29246;SDS011;16272;48.188;9.964;2022-12-07T14:29:46;10.82;;;3.50;;
29246;SDS011;16272;48.188;9.964;2022-12-07T14:32:19;10.63;;;3.60;;
29246;SDS011;16272;48.188;9.964;2022-12-07T14:35:12;10.32;;;3.38;;
29246;SDS011;16272;48.188;9.964;2022-12-07T14:37:40;9.55;;;3.60;;
29246;SDS011;16272;48.188;9.964;2022-12-07T14:40:11;10.60;;;3.37;;
29246;SDS011;16272;48.188;9.964;2022-12-07T14:42:38;10.65;;;3.28;;
29246;SDS011;16272;48.188;9.964;2022-12-07T14:45:05;10.95;;;3.30;;
29246;SDS011;16272;48.188;9.964;2022-12-07T14:47:31;9.60;;;3.03;;
29246;SDS011;16272;48.188;9.964;2022-12-07T14:49:57;12.57;;;3.40;;
29246;SDS011;16272;48.188;9.964;2022-12-07T14:52:27;9.67;;;3.17;;
29246;SDS011;16272;48.188;9.964;2022-12-07T14:54:55;9.05;;;2.78;;
29246;SDS011;16272;48.188;9.964;2022-12-07T14:57:20;10.67;;;3.70;;
29246;SDS011;16272;48.188;9.964;2022-12-07T14:59:45;11.77;;;3.10;;
29246;SDS011;16272;48.188;9.964;2022-12-07T15:02:12;9.67;;;3.00;;
29246;SDS011;16272;48.188;9.964;2022-12-07T15:04:39;8.65;;;2.67;;
29246;SDS011;16272;48.188;9.964;2022-12-07T15:07:05;10.85;;;3.35;;
29246;SDS011;16272;48.188;9.964;2022-12-07T15:09:35;10.15;;;2.85;;
29246;SDS011;16272;48.188;9.964;2022-12-07T15:12:00;10.30;;;3.50;;
29246;SDS011;16272;48.188;9.964;2022-12-07T15:14:25;11.20;;;3.30;;
29246;SDS011;16272;48.188;9.964;2022-12-07T15:16:51;10.47;;;3.00;;
29246;SDS011;16272;48.188;9.964;2022-12-07T15:19:17;9.70;;;3.10;;
29246;SDS011;16272;48.188;9.964;2022-12-07T15:21:47;9.80;;;2.85;;
29246;SDS011;16272;48.188;9.964;2022-12-07T15:24:13;9.27;;;2.93;;
29246;SDS011;16272;48.188;9.964;2022-12-07T15:26:38;9.70;;;2.70;;
29246;SDS011;16272;48.188;9.964;2022-12-07T15:29:05;9.93;;;2.92;;
29246;SDS011;16272;48.188;9.964;2022-12-07T15:31:31;9.45;;;2.95;;
29246;SDS011;16272;48.188;9.964;2022-12-07T15:33:57;11.07;;;2.97;;
29246;SDS011;16272;48.188;9.964;2022-12-07T15:36:24;8.30;;;2.43;;
29246;SDS011;16272;48.188;9.964;2022-12-07T15:38:51;9.07;;;3.00;;
29246;SDS011;16272;48.188;9.964;2022-12-07T15:41:17;9.50;;;3.20;;
29246;SDS011;16272;48.188;9.964;2022-12-07T15:43:42;10.00;;;2.73;;
29246;SDS011;16272;48.188;9.964;2022-12-07T15:46:33;8.90;;;2.85;;
29246;SDS011;16272;48.188;9.964;2022-12-07T15:49:00;8.93;;;2.42;;
29246;SDS011;16272;48.188;9.964;2022-12-07T15:51:26;9.57;;;2.70;;
29246;SDS011;16272;48.188;9.964;2022-12-07T15:53:52;10.80;;;2.50;;
29246;SDS011;16272;48.188;9.964;2022-12-07T15:56:18;8.73;;;2.78;;
29246;SDS011;16272;48.188;9.964;2022-12-07T15:58:44;8.52;;;2.80;;
29246;SDS011;16272;48.188;9.964;2022-12-07T16:01:10;8.07;;;2.53;;
29246;SDS011;16272;48.188;9.964;2022-12-07T16:03:37;8.85;;;2.72;;
29246;SDS011;16272;48.188;9.964;2022-12-07T16:06:03;9.33;;;2.63;;
29246;SDS011;16272;48.188;9.964;2022-12-07T16:08:28;8.85;;;2.50;;
29246;SDS011;16272;48.188;9.964;2022-12-07T16:10:54;10.13;;;2.60;;
29246;SDS011;16272;48.188;9.964;2022-12-07T16:13:19;9.50;;;2.70;;
29246;SDS011;16272;48.188;9.964;2022-12-07T16:15:45;8.68;;;2.78;;
29246;SDS011;16272;48.188;9.964;2022-12-07T16:18:11;10.57;;;3.13;;
29246;SDS011;16272;48.188;9.964;2022-12-07T16:20:37;8.80;;;2.50;;
29246;SDS011;16272;48.188;9.964;2022-12-07T16:23:03;9.80;;;2.87;;
29246;SDS011;16272;48.188;9.964;2022-12-07T16:25:28;9.35;;;2.70;;
29246;SDS011;16272;48.188;9.964;2022-12-07T16:27:54;12.15;;;3.17;;
29246;SDS011;16272;48.188;9.964;2022-12-07T16:30:20;10.00;;;2.80;;
29246;SDS011;16272;48.188;9.964;2022-12-07T16:32:45;8.97;;;2.83;;
29246;SDS011;16272;48.188;9.964;2022-12-07T16:35:11;9.90;;;3.10;;
29246;SDS011;16272;48.188;9.964;2022-12-07T16:37:37;9.53;;;2.77;;
29246;SDS011;16272;48.188;9.964;2022-12-07T16:40:02;10.65;;;2.60;;
29246;SDS011;16272;48.188;9.964;2022-12-07T16:42:35;12.53;;;3.10;;
29246;SDS011;16272;48.188;9.964;2022-12-07T16:45:00;10.93;;;3.17;;
29246;SDS011;16272;48.188;9.964;2022-12-07T16:47:26;11.82;;;3.85;;
29246;SDS011;16272;48.188;9.964;2022-12-07T16:49:52;11.37;;;3.70;;
29246;SDS011;16272;48.188;9.964;2022-12-07T16:52:18;11.50;;;3.87;;
29246;SDS011;16272;48.188;9.964;2022-12-07T16:54:44;12.00;;;3.65;;
29246;SDS011;16272;48.188;9.964;2022-12-07T16:57:10;10.98;;;3.42;;
29246;SDS011;16272;48.188;9.964;2022-12-07T16:59:35;10.97;;;3.53;;
29246;SDS011;16272;48.188;9.964;2022-12-07T17:02:01;9.97;;;3.43;;
29246;SDS011;16272;48.188;9.964;2022-12-07T17:04:27;10.63;;;3.35;;
29246;SDS011;16272;48.188;9.964;2022-12-07T17:06:52;11.13;;;3.17;;
29246;SDS011;16272;48.188;9.964;2022-12-07T17:09:17;11.00;;;3.30;;
29246;SDS011;16272;48.188;9.964;2022-12-07T17:11:43;11.63;;;3.37;;
29246;SDS011;16272;48.188;9.964;2022-12-07T17:14:10;11.57;;;3.37;;
29246;SDS011;16272;48.188;9.964;2022-12-07T17:16:54;12.77;;;3.65;;
29246;SDS011;16272;48.188;9.964;2022-12-07T17:19:19;11.50;;;3.80;;
29246;SDS011;16272;48.188;9.964;2022-12-07T17:21:46;13.33;;;3.50;;
29246;SDS011;16272;48.188;9.964;2022-12-07T17:24:13;11.40;;;3.65;;
29246;SDS011;16272;48.188;9.964;2022-12-07T17:26:40;11.57;;;3.83;;
29246;SDS011;16272;48.188;9.964;2022-12-07T17:29:07;11.35;;;3.35;;